sensor_id;sensor_type;location;lat;lon;timestamp;temperature;humidity
39655;DHT22;25336;59.944;11.010;2023-07-29T00:02:06;18.10;67.20
39655;DHT22;25336;59.944;11.010;2023-07-29T00:04:31;18.10;67.20
39655;DHT22;25336;59.944;11.010;2023-07-29T00:06:57;18.10;67.00
39655;DHT22;25336;59.944;11.010;2023-07-29T00:09:22;18.10;67.10
39655;DHT22;25336;59.944;11.010;2023-07-29T00:11:48;18.20;67.10
39655;DHT22;25336;59.944;11.010;2023-07-29T00:14:14;18.20;66.90
39655;DHT22;25336;59.944;11.010;2023-07-29T00:16:39;18.20;66.90
39655;DHT22;25336;59.944;11.010;2023-07-29T00:19:05;18.20;66.90
39655;DHT22;25336;59.944;11.010;2023-07-29T00:21:31;18.20;66.80
39655;DHT22;25336;59.944;11.010;2023-07-29T00:23:56;18.20;66.70
39655;DHT22;25336;59.944;11.010;2023-07-29T00:26:26;18.20;66.60
39655;DHT22;25336;59.944;11.010;2023-07-29T00:28:58;18.20;66.40
39655;DHT22;25336;59.944;11.010;2023-07-29T00:31:23;18.20;66.50
39655;DHT22;25336;59.944;11.010;2023-07-29T00:33:49;18.20;66.40
39655;DHT22;25336;59.944;11.010;2023-07-29T00:36:15;18.20;66.40
39655;DHT22;25336;59.944;11.010;2023-07-29T00:38:41;18.20;66.60
39655;DHT22;25336;59.944;11.010;2023-07-29T00:41:07;18.20;66.50
39655;DHT22;25336;59.944;11.010;2023-07-29T00:43:33;18.20;66.60
39655;DHT22;25336;59.944;11.010;2023-07-29T00:45:59;18.20;66.60
39655;DHT22;25336;59.944;11.010;2023-07-29T00:48:25;18.30;66.80
39655;DHT22;25336;59.944;11.010;2023-07-29T00:50:51;18.20;66.80
39655;DHT22;25336;59.944;11.010;2023-07-29T00:53:18;18.30;66.90
39655;DHT22;25336;59.944;11.010;2023-07-29T00:55:43;18.30;66.60
39655;DHT22;25336;59.944;11.010;2023-07-29T00:58:10;18.30;66.60
39655;DHT22;25336;59.944;11.010;2023-07-29T01:00:36;18.30;67.40
39655;DHT22;25336;59.944;11.010;2023-07-29T01:03:02;18.30;66.60
39655;DHT22;25336;59.944;11.010;2023-07-29T01:05:34;18.30;66.60
39655;DHT22;25336;59.944;11.010;2023-07-29T01:08:37;18.30;66.80
39655;DHT22;25336;59.944;11.010;2023-07-29T01:11:33;18.30;67.30
39655;DHT22;25336;59.944;11.010;2023-07-29T01:14:05;18.40;67.20
39655;DHT22;25336;59.944;11.010;2023-07-29T01:16:58;18.30;66.50
39655;DHT22;25336;59.944;11.010;2023-07-29T01:19:41;18.40;67.20
39655;DHT22;25336;59.944;11.010;2023-07-29T01:22:08;18.30;66.30
39655;DHT22;25336;59.944;11.010;2023-07-29T01:24:34;18.30;66.30
39655;DHT22;25336;59.944;11.010;2023-07-29T01:26:59;18.30;66.40
39655;DHT22;25336;59.944;11.010;2023-07-29T01:29:27;18.30;66.40
39655;DHT22;25336;59.944;11.010;2023-07-29T01:31:57;18.30;66.40
39655;DHT22;25336;59.944;11.010;2023-07-29T01:34:29;18.30;66.60
39655;DHT22;25336;59.944;11.010;2023-07-29T01:36:59;18.30;66.60
39655;DHT22;25336;59.944;11.010;2023-07-29T01:39:29;18.30;66.40
39655;DHT22;25336;59.944;11.010;2023-07-29T01:41:57;18.30;66.40
39655;DHT22;25336;59.944;11.010;2023-07-29T01:44:23;18.30;66.50
39655;DHT22;25336;59.944;11.010;2023-07-29T01:46:49;18.30;66.40
39655;DHT22;25336;59.944;11.010;2023-07-29T01:49:15;18.30;66.40
39655;DHT22;25336;59.944;11.010;2023-07-29T01:51:41;18.30;66.40
39655;DHT22;25336;59.944;11.010;2023-07-29T01:54:06;18.30;66.40
39655;DHT22;25336;59.944;11.010;2023-07-29T01:56:32;18.30;66.30
39655;DHT22;25336;59.944;11.010;2023-07-29T01:58:57;18.30;66.20
39655;DHT22;25336;59.944;11.010;2023-07-29T02:01:23;18.30;66.20
39655;DHT22;25336;59.944;11.010;2023-07-29T02:03:48;18.30;66.20
39655;DHT22;25336;59.944;11.010;2023-07-29T02:06:20;18.30;66.20
39655;DHT22;25336;59.944;11.010;2023-07-29T02:08:46;18.30;66.10
39655;DHT22;25336;59.944;11.010;2023-07-29T02:11:11;18.30;66.10
39655;DHT22;25336;59.944;11.010;2023-07-29T02:13:37;18.30;66.20
39655;DHT22;25336;59.944;11.010;2023-07-29T02:16:03;18.30;66.90
39655;DHT22;25336;59.944;11.010;2023-07-29T02:18:29;18.30;66.20
39655;DHT22;25336;59.944;11.010;2023-07-29T02:20:54;18.30;66.10
39655;DHT22;25336;59.944;11.010;2023-07-29T02:23:20;18.30;66.10
39655;DHT22;25336;59.944;11.010;2023-07-29T02:25:45;18.40;66.10
39655;DHT22;25336;59.944;11.010;2023-07-29T02:28:11;18.30;66.00
39655;DHT22;25336;59.944;11.010;2023-07-29T02:30:40;18.30;66.00
39655;DHT22;25336;59.944;11.010;2023-07-29T02:33:06;18.30;66.00
39655;DHT22;25336;59.944;11.010;2023-07-29T02:35:31;18.30;65.90
39655;DHT22;25336;59.944;11.010;2023-07-29T02:37:57;18.30;65.90
39655;DHT22;25336;59.944;11.010;2023-07-29T02:40:23;18.30;65.90
39655;DHT22;25336;59.944;11.010;2023-07-29T02:42:50;18.30;65.90
39655;DHT22;25336;59.944;11.010;2023-07-29T02:45:16;18.30;65.80
39655;DHT22;25336;59.944;11.010;2023-07-29T02:47:41;18.30;65.80
39655;DHT22;25336;59.944;11.010;2023-07-29T02:50:07;18.30;65.80
39655;DHT22;25336;59.944;11.010;2023-07-29T02:52:33;18.20;65.80
39655;DHT22;25336;59.944;11.010;2023-07-29T02:54:58;18.20;65.70
39655;DHT22;25336;59.944;11.010;2023-07-29T02:57:24;18.20;65.80
39655;DHT22;25336;59.944;11.010;2023-07-29T02:59:49;18.20;65.80
39655;DHT22;25336;59.944;11.010;2023-07-29T03:02:15;18.20;65.70
39655;DHT22;25336;59.944;11.010;2023-07-29T03:04:41;18.20;65.80
39655;DHT22;25336;59.944;11.010;2023-07-29T03:07:07;18.20;65.70
39655;DHT22;25336;59.944;11.010;2023-07-29T03:09:32;18.20;65.70
39655;DHT22;25336;59.944;11.010;2023-07-29T03:11:58;18.20;65.70
39655;DHT22;25336;59.944;11.010;2023-07-29T03:14:24;18.20;65.70
39655;DHT22;25336;59.944;11.010;2023-07-29T03:16:50;18.20;65.70
39655;DHT22;25336;59.944;11.010;2023-07-29T03:19:16;18.20;65.70
39655;DHT22;25336;59.944;11.010;2023-07-29T03:21:41;18.10;65.60
39655;DHT22;25336;59.944;11.010;2023-07-29T03:24:07;18.20;65.70
39655;DHT22;25336;59.944;11.010;2023-07-29T03:26:33;18.10;65.60
39655;DHT22;25336;59.944;11.010;2023-07-29T03:28:58;18.10;65.60
39655;DHT22;25336;59.944;11.010;2023-07-29T03:31:24;18.10;65.70
39655;DHT22;25336;59.944;11.010;2023-07-29T03:33:50;18.10;65.60
39655;DHT22;25336;59.944;11.010;2023-07-29T03:36:15;18.00;65.60
39655;DHT22;25336;59.944;11.010;2023-07-29T03:38:41;18.10;65.60
39655;DHT22;25336;59.944;11.010;2023-07-29T03:41:10;18.10;65.60
39655;DHT22;25336;59.944;11.010;2023-07-29T03:43:36;18.00;65.70
39655;DHT22;25336;59.944;11.010;2023-07-29T03:46:02;18.00;65.60
39655;DHT22;25336;59.944;11.010;2023-07-29T03:48:27;18.00;65.80
39655;DHT22;25336;59.944;11.010;2023-07-29T03:50:53;18.00;65.80
39655;DHT22;25336;59.944;11.010;2023-07-29T03:53:20;18.00;65.70
39655;DHT22;25336;59.944;11.010;2023-07-29T03:55:45;18.00;65.70
39655;DHT22;25336;59.944;11.010;2023-07-29T03:58:12;18.00;65.60
39655;DHT22;25336;59.944;11.010;2023-07-29T04:00:38;18.00;65.60
39655;DHT22;25336;59.944;11.010;2023-07-29T04:03:04;18.00;65.70
39655;DHT22;25336;59.944;11.010;2023-07-29T04:05:29;18.00;65.70
39655;DHT22;25336;59.944;11.010;2023-07-29T04:07:55;18.00;65.80
39655;DHT22;25336;59.944;11.010;2023-07-29T04:10:21;17.90;65.70
39655;DHT22;25336;59.944;11.010;2023-07-29T04:12:46;18.00;65.80
39655;DHT22;25336;59.944;11.010;2023-07-29T04:15:12;18.00;66.00
39655;DHT22;25336;59.944;11.010;2023-07-29T04:17:38;18.00;65.90
39655;DHT22;25336;59.944;11.010;2023-07-29T04:20:04;18.00;65.80
39655;DHT22;25336;59.944;11.010;2023-07-29T04:22:29;18.00;65.80
39655;DHT22;25336;59.944;11.010;2023-07-29T04:24:55;18.70;66.30
39655;DHT22;25336;59.944;11.010;2023-07-29T04:27:21;18.00;65.90
39655;DHT22;25336;59.944;11.010;2023-07-29T04:29:46;18.00;65.90
39655;DHT22;25336;59.944;11.010;2023-07-29T04:32:12;18.00;65.90
39655;DHT22;25336;59.944;11.010;2023-07-29T04:34:38;17.90;65.90
39655;DHT22;25336;59.944;11.010;2023-07-29T04:37:03;18.00;66.10
39655;DHT22;25336;59.944;11.010;2023-07-29T04:39:29;18.00;66.20
39655;DHT22;25336;59.944;11.010;2023-07-29T04:41:55;18.00;66.30
39655;DHT22;25336;59.944;11.010;2023-07-29T04:44:22;18.00;66.20
39655;DHT22;25336;59.944;11.010;2023-07-29T04:46:48;18.00;66.10
39655;DHT22;25336;59.944;11.010;2023-07-29T04:49:13;18.00;66.00
39655;DHT22;25336;59.944;11.010;2023-07-29T04:51:39;18.00;66.90
39655;DHT22;25336;59.944;11.010;2023-07-29T04:54:05;18.00;66.20
39655;DHT22;25336;59.944;11.010;2023-07-29T04:56:30;18.00;66.20
39655;DHT22;25336;59.944;11.010;2023-07-29T04:58:56;18.00;66.10
39655;DHT22;25336;59.944;11.010;2023-07-29T05:01:22;18.00;66.20
39655;DHT22;25336;59.944;11.010;2023-07-29T05:03:47;18.10;66.30
39655;DHT22;25336;59.944;11.010;2023-07-29T05:06:13;18.10;66.30
39655;DHT22;25336;59.944;11.010;2023-07-29T05:08:39;18.10;66.20
39655;DHT22;25336;59.944;11.010;2023-07-29T05:11:04;18.00;66.20
39655;DHT22;25336;59.944;11.010;2023-07-29T05:13:30;18.10;66.20
39655;DHT22;25336;59.944;11.010;2023-07-29T05:15:55;18.00;66.10
39655;DHT22;25336;59.944;11.010;2023-07-29T05:18:21;18.10;67.20
39655;DHT22;25336;59.944;11.010;2023-07-29T05:20:47;18.10;66.30
39655;DHT22;25336;59.944;11.010;2023-07-29T05:23:13;18.10;66.30
39655;DHT22;25336;59.944;11.010;2023-07-29T05:25:39;18.10;66.40
39655;DHT22;25336;59.944;11.010;2023-07-29T05:28:04;18.10;66.40
39655;DHT22;25336;59.944;11.010;2023-07-29T05:30:30;18.20;66.40
39655;DHT22;25336;59.944;11.010;2023-07-29T05:32:57;18.20;66.40
39655;DHT22;25336;59.944;11.010;2023-07-29T05:35:24;18.20;66.30
39655;DHT22;25336;59.944;11.010;2023-07-29T05:37:50;18.20;66.30
39655;DHT22;25336;59.944;11.010;2023-07-29T05:40:15;18.20;66.20
39655;DHT22;25336;59.944;11.010;2023-07-29T05:42:41;18.20;66.00
39655;DHT22;25336;59.944;11.010;2023-07-29T05:45:07;18.20;66.00
39655;DHT22;25336;59.944;11.010;2023-07-29T05:47:33;18.20;66.00
39655;DHT22;25336;59.944;11.010;2023-07-29T05:49:59;18.20;66.10
39655;DHT22;25336;59.944;11.010;2023-07-29T05:52:27;18.20;66.10
39655;DHT22;25336;59.944;11.010;2023-07-29T05:54:52;18.20;66.10
39655;DHT22;25336;59.944;11.010;2023-07-29T05:57:18;18.20;66.20
39655;DHT22;25336;59.944;11.010;2023-07-29T05:59:44;18.20;66.30
39655;DHT22;25336;59.944;11.010;2023-07-29T06:02:09;18.30;66.40
39655;DHT22;25336;59.944;11.010;2023-07-29T06:04:36;18.30;66.20
39655;DHT22;25336;59.944;11.010;2023-07-29T06:07:02;18.30;66.00
39655;DHT22;25336;59.944;11.010;2023-07-29T06:09:28;18.40;66.00
39655;DHT22;25336;59.944;11.010;2023-07-29T06:11:53;18.40;65.90
39655;DHT22;25336;59.944;11.010;2023-07-29T06:14:20;18.50;65.50
39655;DHT22;25336;59.944;11.010;2023-07-29T06:16:46;18.50;65.10
39655;DHT22;25336;59.944;11.010;2023-07-29T06:19:11;18.50;65.10
39655;DHT22;25336;59.944;11.010;2023-07-29T06:21:38;18.50;64.90
39655;DHT22;25336;59.944;11.010;2023-07-29T06:24:04;18.50;64.90
39655;DHT22;25336;59.944;11.010;2023-07-29T06:26:30;18.60;64.90
39655;DHT22;25336;59.944;11.010;2023-07-29T06:28:55;18.60;64.80
39655;DHT22;25336;59.944;11.010;2023-07-29T06:31:21;18.60;64.70
39655;DHT22;25336;59.944;11.010;2023-07-29T06:33:47;18.60;64.70
39655;DHT22;25336;59.944;11.010;2023-07-29T06:36:13;18.60;64.80
39655;DHT22;25336;59.944;11.010;2023-07-29T06:38:39;18.70;65.00
39655;DHT22;25336;59.944;11.010;2023-07-29T06:41:05;18.70;64.90
39655;DHT22;25336;59.944;11.010;2023-07-29T06:43:31;18.80;65.10
39655;DHT22;25336;59.944;11.010;2023-07-29T06:45:56;18.90;65.30
39655;DHT22;25336;59.944;11.010;2023-07-29T06:48:22;18.90;65.40
39655;DHT22;25336;59.944;11.010;2023-07-29T06:50:48;19.00;65.50
39655;DHT22;25336;59.944;11.010;2023-07-29T06:53:15;19.10;65.50
39655;DHT22;25336;59.944;11.010;2023-07-29T06:55:41;19.20;64.90
39655;DHT22;25336;59.944;11.010;2023-07-29T06:58:06;19.20;64.20
39655;DHT22;25336;59.944;11.010;2023-07-29T07:00:33;19.30;63.90
39655;DHT22;25336;59.944;11.010;2023-07-29T07:02:58;19.30;64.10
39655;DHT22;25336;59.944;11.010;2023-07-29T07:05:24;19.40;64.40
39655;DHT22;25336;59.944;11.010;2023-07-29T07:07:50;19.50;64.10
39655;DHT22;25336;59.944;11.010;2023-07-29T07:10:15;19.50;63.90
39655;DHT22;25336;59.944;11.010;2023-07-29T07:12:42;19.60;63.90
39655;DHT22;25336;59.944;11.010;2023-07-29T07:15:08;19.70;63.10
39655;DHT22;25336;59.944;11.010;2023-07-29T07:17:34;19.80;62.70
39655;DHT22;25336;59.944;11.010;2023-07-29T07:19:59;19.90;62.80
39655;DHT22;25336;59.944;11.010;2023-07-29T07:22:25;20.00;62.30
39655;DHT22;25336;59.944;11.010;2023-07-29T07:24:50;20.00;61.70
39655;DHT22;25336;59.944;11.010;2023-07-29T07:27:16;20.10;61.10
39655;DHT22;25336;59.944;11.010;2023-07-29T07:29:42;20.10;60.90
39655;DHT22;25336;59.944;11.010;2023-07-29T07:32:07;20.10;60.80
39655;DHT22;25336;59.944;11.010;2023-07-29T07:34:33;20.10;60.00
39655;DHT22;25336;59.944;11.010;2023-07-29T07:37:00;20.10;59.80
39655;DHT22;25336;59.944;11.010;2023-07-29T07:39:26;20.10;59.70
39655;DHT22;25336;59.944;11.010;2023-07-29T07:41:51;20.10;59.60
39655;DHT22;25336;59.944;11.010;2023-07-29T07:44:17;20.10;59.60
39655;DHT22;25336;59.944;11.010;2023-07-29T07:46:45;20.10;59.60
39655;DHT22;25336;59.944;11.010;2023-07-29T07:49:11;20.20;59.30
39655;DHT22;25336;59.944;11.010;2023-07-29T07:51:38;20.20;59.30
39655;DHT22;25336;59.944;11.010;2023-07-29T07:54:03;19.60;59.00
39655;DHT22;25336;59.944;11.010;2023-07-29T07:56:29;20.20;59.30
39655;DHT22;25336;59.944;11.010;2023-07-29T07:58:55;20.20;59.10
39655;DHT22;25336;59.944;11.010;2023-07-29T08:01:20;20.20;59.30
39655;DHT22;25336;59.944;11.010;2023-07-29T08:03:46;20.30;59.60
39655;DHT22;25336;59.944;11.010;2023-07-29T08:06:12;20.30;59.80
39655;DHT22;25336;59.944;11.010;2023-07-29T08:08:37;20.40;60.00
39655;DHT22;25336;59.944;11.010;2023-07-29T08:11:03;20.60;59.90
39655;DHT22;25336;59.944;11.010;2023-07-29T08:13:29;20.70;59.70
39655;DHT22;25336;59.944;11.010;2023-07-29T08:15:54;20.80;59.40
39655;DHT22;25336;59.944;11.010;2023-07-29T08:18:20;20.90;58.90
39655;DHT22;25336;59.944;11.010;2023-07-29T08:20:56;21.00;58.60
39655;DHT22;25336;59.944;11.010;2023-07-29T08:23:29;21.10;58.00
39655;DHT22;25336;59.944;11.010;2023-07-29T08:25:56;21.10;58.20
39655;DHT22;25336;59.944;11.010;2023-07-29T08:28:26;21.20;57.90
39655;DHT22;25336;59.944;11.010;2023-07-29T08:30:52;21.20;57.70
39655;DHT22;25336;59.944;11.010;2023-07-29T08:33:17;21.20;57.50
39655;DHT22;25336;59.944;11.010;2023-07-29T08:35:43;21.10;57.50
39655;DHT22;25336;59.944;11.010;2023-07-29T08:38:09;21.10;57.40
39655;DHT22;25336;59.944;11.010;2023-07-29T08:40:35;21.10;57.40
39655;DHT22;25336;59.944;11.010;2023-07-29T08:43:06;21.00;57.40
39655;DHT22;25336;59.944;11.010;2023-07-29T08:45:34;21.10;57.70
39655;DHT22;25336;59.944;11.010;2023-07-29T08:48:02;21.10;58.00
39655;DHT22;25336;59.944;11.010;2023-07-29T08:50:32;21.10;58.00
39655;DHT22;25336;59.944;11.010;2023-07-29T08:52:59;21.20;58.10
39655;DHT22;25336;59.944;11.010;2023-07-29T08:55:25;21.20;57.70
39655;DHT22;25336;59.944;11.010;2023-07-29T08:57:51;21.20;57.70
39655;DHT22;25336;59.944;11.010;2023-07-29T09:00:17;21.10;57.40
39655;DHT22;25336;59.944;11.010;2023-07-29T09:02:43;21.10;57.60
39655;DHT22;25336;59.944;11.010;2023-07-29T09:05:09;21.10;57.70
39655;DHT22;25336;59.944;11.010;2023-07-29T09:07:35;21.10;58.00
39655;DHT22;25336;59.944;11.010;2023-07-29T09:10:02;21.10;58.30
39655;DHT22;25336;59.944;11.010;2023-07-29T09:12:28;20.80;58.10
39655;DHT22;25336;59.944;11.010;2023-07-29T09:14:53;21.10;58.40
39655;DHT22;25336;59.944;11.010;2023-07-29T09:17:20;21.20;58.30
39655;DHT22;25336;59.944;11.010;2023-07-29T09:19:48;21.20;58.40
39655;DHT22;25336;59.944;11.010;2023-07-29T09:22:18;21.20;58.40
39655;DHT22;25336;59.944;11.010;2023-07-29T09:24:45;21.20;58.20
39655;DHT22;25336;59.944;11.010;2023-07-29T09:27:24;21.30;58.20
39655;DHT22;25336;59.944;11.010;2023-07-29T09:29:50;21.40;58.00
39655;DHT22;25336;59.944;11.010;2023-07-29T09:32:23;21.40;58.10
39655;DHT22;25336;59.944;11.010;2023-07-29T09:34:49;21.40;58.00
39655;DHT22;25336;59.944;11.010;2023-07-29T09:37:21;21.50;58.10
39655;DHT22;25336;59.944;11.010;2023-07-29T09:39:47;21.50;58.00
39655;DHT22;25336;59.944;11.010;2023-07-29T09:42:21;21.50;58.10
39655;DHT22;25336;59.944;11.010;2023-07-29T09:44:48;21.50;58.30
39655;DHT22;25336;59.944;11.010;2023-07-29T09:47:22;21.50;58.30
39655;DHT22;25336;59.944;11.010;2023-07-29T09:49:48;21.50;58.20
39655;DHT22;25336;59.944;11.010;2023-07-29T09:52:17;21.50;58.30
39655;DHT22;25336;59.944;11.010;2023-07-29T09:54:44;21.50;58.40
39655;DHT22;25336;59.944;11.010;2023-07-29T09:57:19;21.60;58.30
39655;DHT22;25336;59.944;11.010;2023-07-29T09:59:57;21.60;58.00
39655;DHT22;25336;59.944;11.010;2023-07-29T10:02:23;21.60;58.30
39655;DHT22;25336;59.944;11.010;2023-07-29T10:04:52;21.60;58.30
39655;DHT22;25336;59.944;11.010;2023-07-29T10:07:17;21.70;58.50
39655;DHT22;25336;59.944;11.010;2023-07-29T10:09:45;22.70;58.80
39655;DHT22;25336;59.944;11.010;2023-07-29T10:12:11;21.70;58.30
39655;DHT22;25336;59.944;11.010;2023-07-29T10:14:38;22.60;58.90
39655;DHT22;25336;59.944;11.010;2023-07-29T10:17:05;21.80;58.30
39655;DHT22;25336;59.944;11.010;2023-07-29T10:19:31;21.80;58.10
39655;DHT22;25336;59.944;11.010;2023-07-29T10:21:59;21.90;57.90
39655;DHT22;25336;59.944;11.010;2023-07-29T10:24:30;21.90;58.10
39655;DHT22;25336;59.944;11.010;2023-07-29T10:27:01;21.90;58.30
39655;DHT22;25336;59.944;11.010;2023-07-29T10:29:38;22.00;57.90
39655;DHT22;25336;59.944;11.010;2023-07-29T10:32:04;22.10;58.00
39655;DHT22;25336;59.944;11.010;2023-07-29T10:34:31;22.20;57.50
39655;DHT22;25336;59.944;11.010;2023-07-29T10:36:59;22.20;57.30
39655;DHT22;25336;59.944;11.010;2023-07-29T10:39:25;22.30;57.50
39655;DHT22;25336;59.944;11.010;2023-07-29T10:47:17;22.50;57.00
39655;DHT22;25336;59.944;11.010;2023-07-29T10:49:48;22.60;56.80
39655;DHT22;25336;59.944;11.010;2023-07-29T10:52:15;22.70;56.80
39655;DHT22;25336;59.944;11.010;2023-07-29T10:54:46;22.80;56.60
39655;DHT22;25336;59.944;11.010;2023-07-29T10:57:36;22.80;56.50
39655;DHT22;25336;59.944;11.010;2023-07-29T11:00:04;22.90;55.90
39655;DHT22;25336;59.944;11.010;2023-07-29T11:02:37;22.80;56.20
39655;DHT22;25336;59.944;11.010;2023-07-29T11:05:07;22.90;55.70
39655;DHT22;25336;59.944;11.010;2023-07-29T11:07:49;23.00;55.80
39655;DHT22;25336;59.944;11.010;2023-07-29T11:10:15;23.10;55.60
39655;DHT22;25336;59.944;11.010;2023-07-29T11:15:21;23.20;56.20
39655;DHT22;25336;59.944;11.010;2023-07-29T11:20:15;23.30;55.80
39655;DHT22;25336;59.944;11.010;2023-07-29T11:22:41;23.40;55.60
39655;DHT22;25336;59.944;11.010;2023-07-29T11:25:09;23.40;55.60
39655;DHT22;25336;59.944;11.010;2023-07-29T11:27:35;23.50;56.10
39655;DHT22;25336;59.944;11.010;2023-07-29T11:30:04;23.50;55.50
39655;DHT22;25336;59.944;11.010;2023-07-29T11:32:34;23.70;55.10
39655;DHT22;25336;59.944;11.010;2023-07-29T11:35:13;23.80;54.50
39655;DHT22;25336;59.944;11.010;2023-07-29T11:37:40;23.80;54.50
39655;DHT22;25336;59.944;11.010;2023-07-29T11:40:07;23.80;54.80
39655;DHT22;25336;59.944;11.010;2023-07-29T11:42:36;23.90;54.20
39655;DHT22;25336;59.944;11.010;2023-07-29T11:45:03;24.00;53.80
39655;DHT22;25336;59.944;11.010;2023-07-29T11:47:31;24.10;53.90
39655;DHT22;25336;59.944;11.010;2023-07-29T11:49:59;24.10;53.60
39655;DHT22;25336;59.944;11.010;2023-07-29T11:52:28;24.20;53.70
39655;DHT22;25336;59.944;11.010;2023-07-29T11:54:54;24.30;53.40
39655;DHT22;25336;59.944;11.010;2023-07-29T11:57:20;24.30;53.00
39655;DHT22;25336;59.944;11.010;2023-07-29T11:59:46;24.40;53.00
39655;DHT22;25336;59.944;11.010;2023-07-29T12:02:14;24.50;53.30
39655;DHT22;25336;59.944;11.010;2023-07-29T12:04:41;24.50;53.10
39655;DHT22;25336;59.944;11.010;2023-07-29T12:07:08;24.70;52.90
39655;DHT22;25336;59.944;11.010;2023-07-29T12:09:35;24.70;52.20
39655;DHT22;25336;59.944;11.010;2023-07-29T12:12:02;24.80;52.30
39655;DHT22;25336;59.944;11.010;2023-07-29T12:14:29;24.90;51.50
39655;DHT22;25336;59.944;11.010;2023-07-29T12:16:54;24.90;50.30
39655;DHT22;25336;59.944;11.010;2023-07-29T12:19:20;25.10;49.60
39655;DHT22;25336;59.944;11.010;2023-07-29T12:21:48;25.10;49.30
39655;DHT22;25336;59.944;11.010;2023-07-29T12:24:14;25.10;49.80
39655;DHT22;25336;59.944;11.010;2023-07-29T12:26:41;25.20;48.30
39655;DHT22;25336;59.944;11.010;2023-07-29T12:29:17;25.30;47.90
39655;DHT22;25336;59.944;11.010;2023-07-29T12:31:45;25.30;46.40
39655;DHT22;25336;59.944;11.010;2023-07-29T12:34:21;25.30;47.30
39655;DHT22;25336;59.944;11.010;2023-07-29T12:36:48;25.60;47.40
39655;DHT22;25336;59.944;11.010;2023-07-29T12:39:25;25.50;47.10
39655;DHT22;25336;59.944;11.010;2023-07-29T12:41:52;25.60;46.90
39655;DHT22;25336;59.944;11.010;2023-07-29T12:44:18;25.70;47.40
39655;DHT22;25336;59.944;11.010;2023-07-29T12:46:44;25.80;47.30
39655;DHT22;25336;59.944;11.010;2023-07-29T12:49:10;25.90;46.90
39655;DHT22;25336;59.944;11.010;2023-07-29T12:51:36;26.00;47.00
39655;DHT22;25336;59.944;11.010;2023-07-29T12:54:03;26.20;47.20
39655;DHT22;25336;59.944;11.010;2023-07-29T12:56:31;26.30;47.20
39655;DHT22;25336;59.944;11.010;2023-07-29T12:58:58;26.50;46.30
39655;DHT22;25336;59.944;11.010;2023-07-29T13:01:27;26.60;45.10
39655;DHT22;25336;59.944;11.010;2023-07-29T13:03:53;26.60;44.80
39655;DHT22;25336;59.944;11.010;2023-07-29T13:06:19;26.60;45.00
39655;DHT22;25336;59.944;11.010;2023-07-29T13:08:45;26.60;44.80
39655;DHT22;25336;59.944;11.010;2023-07-29T13:11:11;26.60;45.00
39655;DHT22;25336;59.944;11.010;2023-07-29T13:13:37;26.60;44.50
39655;DHT22;25336;59.944;11.010;2023-07-29T13:16:03;26.70;44.80
39655;DHT22;25336;59.944;11.010;2023-07-29T13:18:29;26.70;44.30
39655;DHT22;25336;59.944;11.010;2023-07-29T13:20:55;26.70;43.80
39655;DHT22;25336;59.944;11.010;2023-07-29T13:23:21;26.60;43.80
39655;DHT22;25336;59.944;11.010;2023-07-29T13:25:47;26.60;44.10
39655;DHT22;25336;59.944;11.010;2023-07-29T13:28:13;26.60;44.20
39655;DHT22;25336;59.944;11.010;2023-07-29T13:30:39;26.70;43.70
39655;DHT22;25336;59.944;11.010;2023-07-29T13:33:06;26.70;43.10
39655;DHT22;25336;59.944;11.010;2023-07-29T13:35:31;26.70;42.50
39655;DHT22;25336;59.944;11.010;2023-07-29T13:37:57;26.80;42.50
39655;DHT22;25336;59.944;11.010;2023-07-29T13:40:23;26.80;42.40
39655;DHT22;25336;59.944;11.010;2023-07-29T13:42:49;26.80;42.40
39655;DHT22;25336;59.944;11.010;2023-07-29T13:45:14;26.80;42.70
39655;DHT22;25336;59.944;11.010;2023-07-29T13:47:40;26.80;42.20
39655;DHT22;25336;59.944;11.010;2023-07-29T13:50:06;26.90;42.70
39655;DHT22;25336;59.944;11.010;2023-07-29T13:52:33;26.80;42.60
39655;DHT22;25336;59.944;11.010;2023-07-29T13:54:59;26.80;42.60
39655;DHT22;25336;59.944;11.010;2023-07-29T13:57:25;26.80;42.40
39655;DHT22;25336;59.944;11.010;2023-07-29T13:59:50;26.70;42.50
39655;DHT22;25336;59.944;11.010;2023-07-29T14:02:16;26.80;42.00
39655;DHT22;25336;59.944;11.010;2023-07-29T14:04:42;26.80;42.40
39655;DHT22;25336;59.944;11.010;2023-07-29T14:07:07;26.90;42.30
39655;DHT22;25336;59.944;11.010;2023-07-29T14:09:33;26.90;42.00
39655;DHT22;25336;59.944;11.010;2023-07-29T14:11:59;26.90;41.90
39655;DHT22;25336;59.944;11.010;2023-07-29T14:14:24;26.90;42.10
39655;DHT22;25336;59.944;11.010;2023-07-29T14:16:50;26.90;41.80
39655;DHT22;25336;59.944;11.010;2023-07-29T14:19:16;26.90;41.90
39655;DHT22;25336;59.944;11.010;2023-07-29T14:21:41;26.90;41.50
39655;DHT22;25336;59.944;11.010;2023-07-29T14:24:07;26.90;41.90
39655;DHT22;25336;59.944;11.010;2023-07-29T14:26:32;26.90;41.90
39655;DHT22;25336;59.944;11.010;2023-07-29T14:28:58;26.90;42.10
39655;DHT22;25336;59.944;11.010;2023-07-29T14:31:24;27.00;41.60
39655;DHT22;25336;59.944;11.010;2023-07-29T14:33:49;26.80;41.10
39655;DHT22;25336;59.944;11.010;2023-07-29T14:36:16;27.00;41.30
39655;DHT22;25336;59.944;11.010;2023-07-29T14:38:41;27.10;41.10
39655;DHT22;25336;59.944;11.010;2023-07-29T14:41:08;27.10;41.00
39655;DHT22;25336;59.944;11.010;2023-07-29T14:43:34;27.10;41.10
39655;DHT22;25336;59.944;11.010;2023-07-29T14:45:59;27.10;40.70
39655;DHT22;25336;59.944;11.010;2023-07-29T14:48:25;27.20;41.00
39655;DHT22;25336;59.944;11.010;2023-07-29T14:50:51;27.20;40.60
39655;DHT22;25336;59.944;11.010;2023-07-29T14:53:17;27.20;40.80
39655;DHT22;25336;59.944;11.010;2023-07-29T14:55:42;27.20;40.90
39655;DHT22;25336;59.944;11.010;2023-07-29T14:58:08;27.20;41.20
39655;DHT22;25336;59.944;11.010;2023-07-29T15:00:34;27.30;41.00
39655;DHT22;25336;59.944;11.010;2023-07-29T15:02:59;27.20;40.60
39655;DHT22;25336;59.944;11.010;2023-07-29T15:05:25;27.30;41.00
39655;DHT22;25336;59.944;11.010;2023-07-29T15:07:51;27.20;41.30
39655;DHT22;25336;59.944;11.010;2023-07-29T15:10:17;27.20;41.50
39655;DHT22;25336;59.944;11.010;2023-07-29T15:12:43;27.20;41.40
39655;DHT22;25336;59.944;11.010;2023-07-29T15:15:10;27.20;41.70
39655;DHT22;25336;59.944;11.010;2023-07-29T15:17:36;27.20;41.90
39655;DHT22;25336;59.944;11.010;2023-07-29T15:20:03;27.30;41.80
39655;DHT22;25336;59.944;11.010;2023-07-29T15:22:29;27.30;42.00
39655;DHT22;25336;59.944;11.010;2023-07-29T15:24:55;27.30;41.00